Time;durP1;ratioP1;P1;durP2;ratioP2;P2;SDS_P1;SDS_P2;PMS_P1;PMS_P2;Temp;Humidity;BMP_temperature;BMP_pressure;BME280_temperature;BME280_humidity;BME280_pressure;Samples;Min_cycle;Max_cycle;Signal;HPM_P1;HPM_P2
2021/10/19 00:01:57;;;;;;;11.38;7.80;;;15.40;99.90;;;;;;5061312;28;20515;-79
2021/10/19 00:04:23;;;;;;;12.00;8.27;;;15.40;99.90;;;;;;5067530;28;20029;-76
2021/10/19 00:06:49;;;;;;;12.95;8.63;;;15.40;99.90;;;;;;5072507;28;20040;-75
2021/10/19 00:09:15;;;;;;;10.48;8.57;;;15.40;99.90;;;;;;5066454;28;20021;-75
2021/10/19 00:11:41;;;;;;;10.63;8.60;;;15.50;99.90;;;;;;5059173;28;20421;-76
2021/10/19 00:14:07;;;;;;;11.15;9.45;;;15.50;99.90;;;;;;5060925;28;20020;-75
2021/10/19 00:16:33;;;;;;;12.93;8.75;;;15.40;99.90;;;;;;5066374;28;20037;-76
2021/10/19 00:18:59;;;;;;;12.57;8.75;;;15.50;99.90;;;;;;5072421;28;20501;-74
2021/10/19 00:21:25;;;;;;;11.13;8.93;;;15.50;99.90;;;;;;5069851;28;20048;-76
2021/10/19 00:23:51;;;;;;;12.95;9.23;;;15.50;99.90;;;;;;5072935;28;20078;-78
2021/10/19 00:26:16;;;;;;;13.88;9.63;;;15.50;99.90;;;;;;5062845;28;20028;-80
2021/10/19 00:28:42;;;;;;;11.43;9.20;;;15.60;99.90;;;;;;5058818;28;20024;-78
2021/10/19 00:31:08;;;;;;;11.23;8.15;;;15.60;99.90;;;;;;5071802;28;20020;-76
2021/10/19 00:33:34;;;;;;;9.45;8.07;;;15.60;99.90;;;;;;5061123;28;20036;-78
2021/10/19 00:36:00;;;;;;;11.95;8.73;;;15.60;99.90;;;;;;5068125;28;20040;-78
2021/10/19 00:38:25;;;;;;;8.75;7.43;;;15.60;99.90;;;;;;5063004;28;20029;-79
2021/10/19 00:40:51;;;;;;;11.95;8.48;;;15.70;99.90;;;;;;5074512;28;20457;-82
2021/10/19 00:43:21;;;;;;;12.27;8.55;;;15.70;99.90;;;;;;5068957;28;20024;-77
2021/10/19 00:45:47;;;;;;;13.25;9.50;;;15.70;99.90;;;;;;5070684;28;20114;-82
2021/10/19 00:48:16;;;;;;;11.07;8.25;;;15.70;99.90;;;;;;5073198;28;20100;-83
2021/10/19 00:50:42;;;;;;;9.95;8.43;;;15.70;99.90;;;;;;5064521;28;20473;-82
2021/10/19 00:53:08;;;;;;;11.52;9.50;;;15.70;99.90;;;;;;5073407;28;20032;-81
2021/10/19 00:55:34;;;;;;;16.77;9.70;;;15.70;99.90;;;;;;5070016;28;20028;-82
2021/10/19 00:58:01;;;;;;;15.55;11.07;;;15.70;99.90;;;;;;5072005;28;20039;-79
2021/10/19 01:00:27;;;;;;;17.17;11.25;;;15.70;99.90;;;;;;5071518;28;20020;-78
2021/10/19 01:02:53;;;;;;;14.88;11.27;;;15.60;99.90;;;;;;5066200;28;20388;-83
2021/10/19 01:05:20;;;;;;;13.73;10.23;;;15.70;99.90;;;;;;5057610;28;20024;-83
2021/10/19 01:07:46;;;;;;;15.50;11.60;;;15.70;99.90;;;;;;5058966;28;20044;-82
2021/10/19 01:10:12;;;;;;;18.27;13.10;;;15.70;99.90;;;;;;5072484;28;20024;-80
2021/10/19 01:12:39;;;;;;;15.90;12.20;;;15.70;99.90;;;;;;5063459;28;20024;-77
2021/10/19 01:15:17;;;;;;;19.58;13.82;;;15.70;99.90;;;;;;5074019;28;20021;-76
2021/10/19 01:17:49;;;;;;;22.70;15.13;;;15.70;99.90;;;;;;5060741;28;20064;-76
2021/10/19 01:20:27;;;;;;;29.30;18.23;;;15.70;99.90;;;;;;5071784;28;20020;-76
2021/10/19 01:22:54;;;;;;;24.05;16.65;;;15.70;99.90;;;;;;5062309;28;20037;-77
2021/10/19 01:25:22;;;;;;;21.45;13.38;;;15.70;99.90;;;;;;5060565;28;20096;-77
2021/10/19 01:27:51;;;;;;;22.63;17.05;;;15.70;99.90;;;;;;5060560;28;20059;-77
2021/10/19 01:30:17;;;;;;;19.98;14.95;;;15.70;99.90;;;;;;5068889;28;20024;-76
2021/10/19 01:32:43;;;;;;;22.17;15.95;;;15.60;99.90;;;;;;5066101;28;20384;-78
2021/10/19 01:35:09;;;;;;;23.40;15.30;;;15.60;99.90;;;;;;5063362;28;20025;-78
2021/10/19 01:37:35;;;;;;;25.15;17.13;;;15.60;99.90;;;;;;5068310;28;20040;-78
2021/10/19 01:40:02;;;;;;;24.25;15.38;;;15.60;99.90;;;;;;5070975;28;20123;-78
2021/10/19 01:42:33;;;;;;;20.83;14.48;;;15.60;99.90;;;;;;5068684;28;20020;-77
2021/10/19 01:44:59;;;;;;;20.98;15.27;;;15.60;99.90;;;;;;5064274;28;20032;-78
2021/10/19 01:47:25;;;;;;;23.58;15.60;;;15.60;99.90;;;;;;5070946;28;20036;-78
2021/10/19 01:49:50;;;;;;;23.58;15.63;;;15.60;99.90;;;;;;5069544;28;20024;-78
2021/10/19 01:52:16;;;;;;;22.05;15.32;;;15.60;99.90;;;;;;5071650;28;20032;-78
2021/10/19 01:54:41;;;;;;;23.25;16.92;;;15.50;99.90;;;;;;5065767;28;20032;-78
2021/10/19 01:57:07;;;;;;;23.98;17.17;;;15.60;99.90;;;;;;5073242;28;20047;-76
2021/10/19 01:59:33;;;;;;;21.73;15.55;;;15.60;99.90;;;;;;5072041;28;20645;-78
2021/10/19 02:01:58;;;;;;;20.45;15.63;;;15.60;99.90;;;;;;5071558;28;20038;-78
2021/10/19 02:04:24;;;;;;;21.42;16.42;;;15.50;99.90;;;;;;5068587;28;20135;-78
2021/10/19 02:06:49;;;;;;;23.75;16.35;;;15.50;99.90;;;;;;5066573;28;20111;-77
2021/10/19 02:09:15;;;;;;;22.35;15.02;;;15.50;99.90;;;;;;5068308;28;20028;-78
2021/10/19 02:11:41;;;;;;;25.60;17.42;;;15.40;99.90;;;;;;5067761;28;20020;-76
2021/10/19 02:14:06;;;;;;;22.77;16.25;;;15.50;99.90;;;;;;5071839;28;20403;-77
2021/10/19 02:16:32;;;;;;;22.83;16.58;;;15.50;99.90;;;;;;5058394;28;20040;-75
2021/10/19 02:18:58;;;;;;;26.52;17.58;;;15.40;99.90;;;;;;5069174;28;20103;-77
2021/10/19 02:21:23;;;;;;;25.33;16.98;;;15.40;99.90;;;;;;5065826;28;20037;-76
2021/10/19 02:23:49;;;;;;;23.70;18.00;;;15.40;99.90;;;;;;5069279;28;20016;-76
2021/10/19 02:26:15;;;;;;;23.35;17.02;;;15.30;99.90;;;;;;5058756;28;20043;-78
2021/10/19 02:28:40;;;;;;;23.98;16.55;;;15.40;99.90;;;;;;5061944;28;20392;-75
2021/10/19 02:31:06;;;;;;;23.15;15.60;;;15.40;99.90;;;;;;5071919;28;20025;-74
2021/10/19 02:33:33;;;;;;;25.45;18.13;;;15.40;99.90;;;;;;5070385;28;20028;-74
2021/10/19 02:35:59;;;;;;;31.23;18.80;;;15.50;99.90;;;;;;5063205;28;20044;-74
2021/10/19 02:38:24;;;;;;;24.75;15.88;;;15.40;99.90;;;;;;5066312;28;20055;-74
2021/10/19 02:40:51;;;;;;;23.05;14.88;;;15.40;99.90;;;;;;5066824;28;20028;-74
2021/10/19 02:43:18;;;;;;;24.20;17.50;;;15.40;99.90;;;;;;5068386;28;20036;-78
2021/10/19 02:45:43;;;;;;;21.38;16.65;;;15.40;99.90;;;;;;5066157;28;20047;-79
2021/10/19 02:48:09;;;;;;;23.48;15.57;;;15.50;99.90;;;;;;5058813;28;20587;-82
2021/10/19 02:50:35;;;;;;;20.77;13.82;;;15.50;99.90;;;;;;5067648;28;20021;-82
2021/10/19 02:53:00;;;;;;;21.10;14.15;;;15.60;99.90;;;;;;5066783;28;20033;-81
2021/10/19 02:55:26;;;;;;;20.52;14.45;;;15.50;99.90;;;;;;5064342;28;20149;-83
2021/10/19 02:57:52;;;;;;;21.48;14.98;;;15.50;99.90;;;;;;5060038;28;20040;-81
2021/10/19 03:00:18;;;;;;;23.13;15.05;;;15.50;99.90;;;;;;5066159;28;20368;-78
2021/10/19 03:02:43;;;;;;;18.95;14.27;;;15.50;99.90;;;;;;5061915;28;20554;-75
2021/10/19 03:05:09;;;;;;;23.65;15.63;;;15.50;99.90;;;;;;5069885;28;20056;-79
2021/10/19 03:07:35;;;;;;;16.90;12.73;;;15.50;99.90;;;;;;5067392;28;20028;-80
2021/10/19 03:10:00;;;;;;;22.95;13.93;;;15.50;99.90;;;;;;5065525;28;20037;-79
2021/10/19 03:12:26;;;;;;;26.88;17.00;;;15.50;99.90;;;;;;5062207;28;20025;-79
2021/10/19 03:14:52;;;;;;;21.67;15.38;;;15.60;99.90;;;;;;5064322;28;20074;-79
2021/10/19 03:17:18;;;;;;;24.90;16.40;;;15.60;99.90;;;;;;5060448;28;20547;-79
2021/10/19 03:19:43;;;;;;;22.63;14.48;;;15.50;99.90;;;;;;5059371;28;20021;-76
2021/10/19 03:22:09;;;;;;;21.85;14.73;;;15.50;99.90;;;;;;5062959;28;20109;-79
2021/10/19 03:24:35;;;;;;;22.08;14.70;;;15.50;99.90;;;;;;5057142;28;20021;-77
2021/10/19 03:27:00;;;;;;;16.33;13.45;;;15.50;99.90;;;;;;5060381;28;20029;-80
2021/10/19 03:29:26;;;;;;;21.65;15.32;;;15.60;99.90;;;;;;5062843;28;20023;-81
2021/10/19 03:31:52;;;;;;;25.55;16.90;;;15.60;99.90;;;;;;5060668;28;20032;-83
2021/10/19 03:34:18;;;;;;;23.15;16.98;;;15.60;99.90;;;;;;5069137;28;20028;-81
2021/10/19 03:36:43;;;;;;;19.95;14.93;;;15.60;99.90;;;;;;5062049;28;20037;-79
2021/10/19 03:39:09;;;;;;;23.45;15.38;;;15.60;99.90;;;;;;5062595;28;20710;-79
2021/10/19 03:41:35;;;;;;;27.95;18.52;;;15.60;99.90;;;;;;5063652;28;20051;-79
2021/10/19 03:44:00;;;;;;;18.42;13.27;;;15.60;99.90;;;;;;5067492;28;20055;-78
2021/10/19 03:46:26;;;;;;;21.67;15.40;;;15.60;99.90;;;;;;5067815;28;20078;-79
2021/10/19 03:48:52;;;;;;;23.35;15.52;;;15.60;99.90;;;;;;5068109;28;20393;-78
2021/10/19 03:51:17;;;;;;;22.13;14.55;;;15.50;99.90;;;;;;5072391;28;20017;-80
2021/10/19 03:53:43;;;;;;;23.92;16.13;;;15.60;99.90;;;;;;5066909;28;20470;-78
2021/10/19 03:56:09;;;;;;;21.10;14.38;;;15.60;99.90;;;;;;5067291;28;20040;-80
2021/10/19 03:58:34;;;;;;;20.10;14.10;;;15.60;99.90;;;;;;5074946;28;20024;-78
2021/10/19 04:01:00;;;;;;;22.63;15.18;;;15.60;99.90;;;;;;5073269;28;20033;-79
2021/10/19 04:03:26;;;;;;;24.48;16.23;;;15.60;99.90;;;;;;5075231;28;20386;-78
2021/10/19 04:05:52;;;;;;;18.95;13.75;;;15.60;99.90;;;;;;5072010;28;20115;-78
2021/10/19 04:08:18;;;;;;;17.60;13.68;;;15.60;99.90;;;;;;5059819;28;20354;-78
2021/10/19 04:10:43;;;;;;;23.92;16.23;;;15.60;99.90;;;;;;5069649;28;20154;-77
2021/10/19 04:13:10;;;;;;;20.77;14.65;;;15.60;99.90;;;;;;5066620;28;20052;-79
2021/10/19 04:15:35;;;;;;;18.13;13.95;;;15.70;99.90;;;;;;5064752;28;20054;-79
2021/10/19 04:18:01;;;;;;;27.00;17.70;;;15.60;99.90;;;;;;5063974;28;20036;-80
2021/10/19 04:20:27;;;;;;;26.17;15.10;;;15.60;99.90;;;;;;5064246;28;20020;-76
2021/10/19 04:22:53;;;;;;;27.65;19.45;;;15.70;99.90;;;;;;5064831;28;20551;-75
2021/10/19 04:25:19;;;;;;;22.50;15.35;;;15.70;99.90;;;;;;5064614;28;20028;-79
2021/10/19 04:27:44;;;;;;;27.00;15.68;;;15.60;99.90;;;;;;5059575;28;20045;-79
2021/10/19 04:30:11;;;;;;;22.75;16.85;;;15.70;99.90;;;;;;5071712;28;20046;-78
2021/10/19 04:32:36;;;;;;;24.13;15.30;;;15.70;99.90;;;;;;5059800;28;20029;-81
2021/10/19 04:35:02;;;;;;;23.02;15.25;;;15.70;99.90;;;;;;5065224;28;20091;-82
2021/10/19 04:37:28;;;;;;;20.75;14.82;;;15.70;99.90;;;;;;5069981;28;20439;-81
2021/10/19 04:39:54;;;;;;;20.95;13.63;;;15.70;99.90;;;;;;5064230;28;20044;-81
2021/10/19 04:42:20;;;;;;;20.55;13.85;;;15.70;99.90;;;;;;5057517;28;20033;-81
2021/10/19 04:44:48;;;;;;;23.25;15.50;;;15.80;99.90;;;;;;5065995;28;20074;-82
2021/10/19 04:47:15;;;;;;;18.23;12.20;;;15.80;99.90;;;;;;5060144;28;20069;-80
2021/10/19 04:49:41;;;;;;;21.33;14.32;;;15.80;99.90;;;;;;5061390;28;20021;-77
2021/10/19 04:52:06;;;;;;;16.52;13.00;;;15.80;99.90;;;;;;5065566;28;20154;-81
2021/10/19 04:54:32;;;;;;;26.70;17.20;;;15.80;99.90;;;;;;5062088;28;20032;-80
2021/10/19 04:56:58;;;;;;;20.70;14.93;;;15.80;99.90;;;;;;5058755;28;20040;-79
2021/10/19 04:59:24;;;;;;;17.50;13.38;;;15.90;99.90;;;;;;5065160;28;20017;-79
2021/10/19 05:01:49;;;;;;;17.73;13.10;;;15.80;99.90;;;;;;5065322;28;20059;-76
2021/10/19 05:04:15;;;;;;;18.60;12.88;;;15.90;99.90;;;;;;5059413;28;20412;-79
2021/10/19 05:06:44;;;;;;;31.75;17.02;;;15.90;99.90;;;;;;5067975;28;20038;-76
2021/10/19 05:09:10;;;;;;;23.88;14.40;;;15.90;99.90;;;;;;5071609;28;20025;-75
2021/10/19 05:11:36;;;;;;;15.90;12.20;;;16.00;99.90;;;;;;5068729;28;20028;-75
2021/10/19 05:14:01;;;;;;;25.20;17.45;;;15.90;99.90;;;;;;5069173;28;20017;-74
2021/10/19 05:16:27;;;;;;;18.17;13.20;;;15.90;99.90;;;;;;5067790;28;20435;-74
2021/10/19 05:18:53;;;;;;;18.73;13.70;;;15.90;99.90;;;;;;5066428;28;20028;-74
2021/10/19 05:21:18;;;;;;;22.77;15.02;;;15.90;99.90;;;;;;5069270;28;20366;-74
2021/10/19 05:23:44;;;;;;;18.83;14.30;;;16.00;99.90;;;;;;5070347;28;20025;-74
2021/10/19 05:26:09;;;;;;;17.58;12.10;;;15.90;99.90;;;;;;5028530;28;1109632;-74
2021/10/19 05:28:35;;;;;;;16.50;12.88;;;15.90;99.90;;;;;;5067894;28;20028;-73
2021/10/19 05:31:02;;;;;;;28.88;17.65;;;16.00;99.90;;;;;;5064358;28;20025;-75
2021/10/19 05:33:27;;;;;;;17.77;13.38;;;16.00;99.90;;;;;;5060906;28;20531;-75
2021/10/19 05:35:53;;;;;;;16.88;13.13;;;16.00;99.90;;;;;;5063144;28;20017;-74
2021/10/19 05:38:19;;;;;;;16.15;12.20;;;16.00;99.90;;;;;;5058387;28;20379;-75
2021/10/19 05:40:44;;;;;;;19.50;13.65;;;16.10;99.90;;;;;;5065336;28;20477;-76
2021/10/19 05:43:10;;;;;;;16.85;13.27;;;16.10;99.90;;;;;;5066672;28;20028;-75
2021/10/19 05:45:36;;;;;;;17.83;14.82;;;16.10;99.90;;;;;;5073519;28;20027;-76
2021/10/19 05:48:02;;;;;;;22.63;16.05;;;16.10;99.90;;;;;;5071504;28;20031;-76
2021/10/19 05:50:27;;;;;;;21.40;15.70;;;16.00;99.90;;;;;;5076718;28;20025;-76
2021/10/19 05:52:53;;;;;;;22.15;14.95;;;16.10;99.90;;;;;;5067026;28;20042;-76
2021/10/19 05:55:19;;;;;;;19.63;14.73;;;16.10;99.90;;;;;;5066534;28;20032;-76
2021/10/19 05:57:45;;;;;;;22.02;14.30;;;16.10;99.90;;;;;;5068685;28;20484;-76
2021/10/19 06:00:11;;;;;;;18.15;13.30;;;16.10;99.90;;;;;;5063219;28;20028;-75
2021/10/19 06:02:36;;;;;;;16.38;12.43;;;16.10;99.90;;;;;;5066190;28;20028;-75
2021/10/19 06:05:03;;;;;;;18.42;13.98;;;16.20;99.90;;;;;;5069339;28;20029;-75
2021/10/19 06:07:28;;;;;;;21.95;15.05;;;16.20;99.90;;;;;;5064392;28;20118;-75
2021/10/19 06:09:54;;;;;;;23.60;16.92;;;16.30;99.90;;;;;;5067779;28;20059;-74
2021/10/19 06:12:19;;;;;;;18.48;13.95;;;16.30;99.90;;;;;;5063666;28;20035;-75
2021/10/19 06:14:45;;;;;;;21.75;15.23;;;16.30;99.90;;;;;;5065383;28;20021;-74
2021/10/19 06:17:11;;;;;;;17.10;13.68;;;16.30;99.90;;;;;;5063572;28;20072;-74
2021/10/19 06:19:37;;;;;;;14.82;12.07;;;16.30;99.90;;;;;;5066233;28;20479;-74
2021/10/19 06:22:03;;;;;;;21.00;13.88;;;16.30;99.90;;;;;;5073660;28;21550;-74
2021/10/19 06:24:28;;;;;;;14.38;11.63;;;16.30;99.90;;;;;;5071119;28;20019;-74
2021/10/19 06:26:54;;;;;;;19.85;14.27;;;16.30;99.90;;;;;;5066640;28;20386;-77
2021/10/19 06:29:20;;;;;;;22.25;15.15;;;16.40;99.90;;;;;;5068380;28;20021;-76
2021/10/19 06:31:46;;;;;;;19.33;14.73;;;16.40;99.90;;;;;;5068922;28;20031;-76
2021/10/19 06:34:11;;;;;;;20.30;14.15;;;16.40;99.90;;;;;;5066511;28;20534;-76
2021/10/19 06:36:37;;;;;;;22.15;15.98;;;16.40;99.90;;;;;;5069729;28;20037;-80
2021/10/19 06:39:03;;;;;;;23.85;14.65;;;16.40;99.90;;;;;;5072121;28;20064;-76
2021/10/19 06:41:31;;;;;;;24.65;18.08;;;16.50;99.90;;;;;;5069967;28;20030;-76
2021/10/19 06:43:57;;;;;;;17.27;14.18;;;16.50;99.90;;;;;;5072378;28;20024;-76
2021/10/19 06:46:23;;;;;;;26.58;19.42;;;16.50;99.90;;;;;;5068813;28;20024;-77
2021/10/19 06:48:49;;;;;;;29.05;18.20;;;16.50;99.90;;;;;;5063770;28;20090;-76
2021/10/19 06:51:14;;;;;;;24.05;16.58;;;16.50;99.90;;;;;;5068986;28;20028;-75
2021/10/19 06:53:40;;;;;;;24.60;16.67;;;16.40;99.90;;;;;;5065599;28;20024;-75
2021/10/19 06:56:05;;;;;;;25.52;18.90;;;16.50;99.90;;;;;;5074960;28;20051;-75
2021/10/19 06:58:31;;;;;;;21.63;16.23;;;16.60;99.90;;;;;;5070500;28;20169;-74
2021/10/19 07:00:59;;;;;;;21.15;15.63;;;16.60;99.90;;;;;;5040749;28;20052;-76
2021/10/19 07:03:26;;;;;;;33.72;22.67;;;16.70;99.90;;;;;;5058440;28;20111;-75
2021/10/19 07:05:52;;;;;;;27.20;19.40;;;16.60;99.90;;;;;;5061050;28;20033;-77
2021/10/19 07:08:17;;;;;;;29.08;19.25;;;16.60;99.90;;;;;;5064176;28;20014;-76
2021/10/19 07:10:43;;;;;;;31.85;23.83;;;16.50;99.90;;;;;;5063754;28;20397;-76
2021/10/19 07:13:09;;;;;;;31.20;21.15;;;16.60;99.90;;;;;;5054366;28;20024;-78
2021/10/19 07:15:35;;;;;;;25.42;18.35;;;16.60;99.90;;;;;;5057184;28;20044;-77
2021/10/19 07:18:07;;;;;;;21.50;16.90;;;16.50;99.90;;;;;;5059161;28;20064;-76
2021/10/19 07:20:33;;;;;;;25.42;18.13;;;16.60;99.90;;;;;;5059438;28;20040;-77
2021/10/19 07:22:59;;;;;;;31.73;21.05;;;16.60;99.90;;;;;;5062705;28;20048;-77
2021/10/19 07:25:26;;;;;;;26.65;18.52;;;16.70;99.90;;;;;;5063760;28;20052;-77
2021/10/19 07:27:53;;;;;;;26.63;18.42;;;16.60;99.90;;;;;;5063932;28;20024;-78
2021/10/19 07:30:19;;;;;;;29.27;20.05;;;16.60;99.90;;;;;;5060260;28;20099;-78
2021/10/19 07:32:45;;;;;;;21.55;16.45;;;16.70;99.90;;;;;;5063150;28;20021;-78
2021/10/19 07:35:12;;;;;;;15.55;12.93;;;16.70;99.90;;;;;;5061996;28;20033;-77
2021/10/19 07:37:39;;;;;;;22.85;16.17;;;16.80;99.90;;;;;;5069181;28;20185;-77
2021/10/19 07:40:07;;;;;;;17.27;14.27;;;16.70;99.90;;;;;;5063731;28;20024;-77
2021/10/19 07:42:33;;;;;;;16.98;13.45;;;16.70;99.90;;;;;;5064191;28;20024;-77
2021/10/19 07:45:07;;;;;;;28.63;18.48;;;16.70;99.90;;;;;;5064453;28;20016;-76
2021/10/19 07:47:37;;;;;;;18.45;14.27;;;16.70;99.90;;;;;;5065775;28;20031;-78
2021/10/19 07:50:03;;;;;;;19.48;14.43;;;16.70;99.90;;;;;;5065637;28;20142;-77
2021/10/19 07:52:29;;;;;;;22.05;15.20;;;16.80;99.90;;;;;;5065480;28;20032;-77
2021/10/19 07:54:54;;;;;;;16.05;11.98;;;16.70;99.90;;;;;;5062358;28;20435;-77
2021/10/19 07:57:20;;;;;;;18.95;14.88;;;16.80;99.90;;;;;;5066084;28;20087;-78
2021/10/19 07:59:46;;;;;;;29.63;18.23;;;16.80;99.90;;;;;;5059990;28;20025;-76
2021/10/19 08:02:11;;;;;;;17.85;13.63;;;16.90;99.90;;;;;;5065015;28;20043;-78
2021/10/19 08:04:37;;;;;;;14.07;12.57;;;16.80;99.90;;;;;;5063321;28;20022;-77
2021/10/19 08:07:02;;;;;;;14.40;12.55;;;16.80;99.90;;;;;;5059999;28;20481;-77
2021/10/19 08:09:28;;;;;;;13.00;11.65;;;16.80;99.90;;;;;;5061283;28;20085;-77
2021/10/19 08:11:54;;;;;;;19.90;13.45;;;16.90;99.90;;;;;;5061963;28;20071;-76
2021/10/19 08:14:19;;;;;;;18.60;13.60;;;16.90;99.90;;;;;;5063268;28;20028;-76
2021/10/19 08:16:45;;;;;;;17.98;13.40;;;16.90;99.90;;;;;;5059449;28;20037;-77
2021/10/19 08:19:12;;;;;;;19.30;14.73;;;16.90;99.90;;;;;;5070938;28;20039;-77
2021/10/19 08:21:37;;;;;;;20.73;15.65;;;16.90;99.90;;;;;;5068587;28;20043;-76
2021/10/19 08:24:03;;;;;;;17.10;14.02;;;17.00;99.90;;;;;;5071905;28;20126;-76
2021/10/19 08:26:30;;;;;;;14.73;12.63;;;17.00;99.90;;;;;;5065979;28;20120;-76
2021/10/19 08:28:58;;;;;;;26.13;14.77;;;17.00;99.90;;;;;;5059814;28;20040;-77
2021/10/19 08:31:24;;;;;;;17.63;11.93;;;17.00;99.90;;;;;;5065518;28;20013;-77
2021/10/19 08:33:50;;;;;;;21.85;15.63;;;17.00;99.90;;;;;;5063218;28;20047;-78
2021/10/19 08:36:17;;;;;;;17.13;12.18;;;17.00;99.90;;;;;;5063208;28;20029;-78
2021/10/19 08:38:44;;;;;;;19.73;12.32;;;17.00;99.90;;;;;;5072502;28;20029;-80
2021/10/19 08:41:13;;;;;;;21.02;16.45;;;17.10;99.90;;;;;;5070736;28;20074;-78
2021/10/19 08:43:39;;;;;;;15.27;11.38;;;17.10;99.90;;;;;;5068899;28;20024;-78
2021/10/19 08:46:11;;;;;;;20.08;15.52;;;17.10;99.90;;;;;;5070432;28;20025;-79
2021/10/19 08:48:38;;;;;;;16.35;14.15;;;17.10;99.90;;;;;;5068252;28;20023;-79
2021/10/19 08:51:05;;;;;;;18.83;14.70;;;17.10;99.90;;;;;;5079956;28;20025;-79
2021/10/19 08:53:37;;;;;;;26.02;23.42;;;17.10;99.90;;;;;;5068406;28;20025;-78
2021/10/19 08:56:04;;;;;;;15.43;13.88;;;17.10;99.90;;;;;;5068137;28;20476;-78
2021/10/19 08:58:31;;;;;;;12.65;10.35;;;17.20;99.90;;;;;;5068403;28;20067;-77
2021/10/19 09:01:07;;;;;;;15.45;13.80;;;17.20;99.90;;;;;;5068542;28;20073;-77
2021/10/19 09:03:33;;;;;;;11.50;9.32;;;17.10;99.90;;;;;;5068129;28;20517;-78
2021/10/19 09:06:00;;;;;;;12.40;11.07;;;17.10;99.90;;;;;;5063712;28;20611;-78
2021/10/19 09:08:26;;;;;;;14.65;11.98;;;17.10;99.90;;;;;;5070149;28;20056;-77
2021/10/19 09:10:52;;;;;;;14.30;12.60;;;17.20;99.90;;;;;;5067358;28;20477;-77
2021/10/19 09:13:19;;;;;;;15.93;13.73;;;17.20;99.90;;;;;;5064559;28;20017;-78
2021/10/19 09:15:47;;;;;;;20.25;17.27;;;17.20;99.90;;;;;;5067710;28;20029;-76
2021/10/19 09:18:14;;;;;;;16.23;11.48;;;17.30;99.90;;;;;;5063572;28;20021;-76
2021/10/19 09:20:51;;;;;;;20.90;14.65;;;17.30;99.90;;;;;;5067769;28;20015;-76
2021/10/19 09:23:21;;;;;;;21.65;14.48;;;17.30;99.90;;;;;;5063154;28;20049;-75
2021/10/19 09:25:49;;;;;;;17.27;13.23;;;17.30;99.90;;;;;;5067749;28;20024;-75
2021/10/19 09:28:31;;;;;;;16.27;13.55;;;17.40;99.90;;;;;;5065561;28;20013;-74
2021/10/19 09:30:57;;;;;;;21.95;16.77;;;17.40;99.90;;;;;;5061787;28;20060;-75
2021/10/19 09:33:23;;;;;;;20.55;13.95;;;17.50;99.90;;;;;;5061279;28;20017;-73
2021/10/19 09:35:52;;;;;;;22.73;15.95;;;17.40;99.90;;;;;;5071289;28;20024;-75
2021/10/19 09:38:18;;;;;;;23.83;16.63;;;17.40;99.90;;;;;;5061938;28;20029;-75
2021/10/19 09:40:46;;;;;;;32.03;19.88;;;17.40;99.90;;;;;;5061244;28;20025;-75
2021/10/19 09:43:20;;;;;;;27.42;17.25;;;17.40;99.90;;;;;;5070366;28;20035;-76
2021/10/19 09:45:50;;;;;;;23.35;15.40;;;17.50;99.90;;;;;;5063418;28;20120;-75
2021/10/19 09:48:18;;;;;;;22.95;14.70;;;17.50;99.90;;;;;;5059241;28;20485;-76
2021/10/19 09:50:46;;;;;;;22.52;14.63;;;17.50;99.90;;;;;;5055730;28;20429;-75
2021/10/19 09:53:15;;;;;;;29.63;18.15;;;17.50;99.90;;;;;;5062485;28;20027;-76
2021/10/19 09:55:43;;;;;;;26.20;17.75;;;17.50;99.90;;;;;;5056507;28;20021;-76
2021/10/19 09:58:10;;;;;;;26.55;17.15;;;17.50;99.90;;;;;;5062584;28;20028;-76
2021/10/19 10:00:37;;;;;;;26.15;16.90;;;17.50;99.90;;;;;;5054189;28;20063;-75
2021/10/19 10:03:06;;;;;;;30.20;18.67;;;17.60;99.90;;;;;;5064555;28;20099;-75
2021/10/19 10:05:33;;;;;;;33.60;19.45;;;17.60;99.90;;;;;;5059827;28;20481;-76
2021/10/19 10:08:00;;;;;;;31.30;17.48;;;17.60;99.90;;;;;;5059401;28;20117;-74
2021/10/19 10:10:26;;;;;;;22.13;14.90;;;17.70;99.90;;;;;;5062592;28;20056;-75
2021/10/19 10:13:00;;;;;;;28.77;16.73;;;17.70;99.90;;;;;;5068350;28;20020;-74
2021/10/19 10:15:31;;;;;;;23.50;14.68;;;17.70;99.90;;;;;;5059559;28;20032;-75
2021/10/19 10:18:01;;;;;;;20.20;13.70;;;17.70;99.90;;;;;;5061508;28;20037;-74
2021/10/19 10:20:38;;;;;;;28.92;17.48;;;17.70;99.90;;;;;;5064101;28;20031;-75
2021/10/19 10:23:26;;;;;;;27.35;17.55;;;17.80;99.90;;;;;;5065343;28;20083;-74
2021/10/19 10:25:54;;;;;;;28.38;18.30;;;17.70;99.90;;;;;;5061240;28;20020;-73
2021/10/19 10:28:32;;;;;;;29.20;17.85;;;17.70;99.90;;;;;;5067031;28;20024;-75
2021/10/19 10:31:01;;;;;;;32.60;17.65;;;17.80;99.90;;;;;;5061681;28;20033;-75
2021/10/19 10:33:37;;;;;;;34.78;21.67;;;17.80;99.90;;;;;;5064957;28;20477;-76
2021/10/19 10:36:11;;;;;;;22.17;16.30;;;17.80;99.90;;;;;;5065740;28;20048;-76
2021/10/19 10:38:38;;;;;;;35.42;18.60;;;18.00;99.90;;;;;;5067672;28;20029;-75
2021/10/19 10:41:14;;;;;;;34.55;19.17;;;18.00;99.90;;;;;;5063735;28;20086;-76
2021/10/19 10:43:44;;;;;;;31.02;18.15;;;18.00;99.90;;;;;;5063178;28;20029;-75
2021/10/19 10:46:20;;;;;;;36.28;22.90;;;18.10;99.90;;;;;;5058536;28;20033;-75
2021/10/19 10:48:47;;;;;;;32.97;21.35;;;18.10;99.90;;;;;;5065584;28;20028;-75
2021/10/19 10:51:23;;;;;;;36.40;22.77;;;18.10;99.90;;;;;;5073609;28;20103;-75
2021/10/19 10:53:49;;;;;;;36.35;22.05;;;18.10;99.90;;;;;;5067162;28;20064;-75
2021/10/19 10:56:16;;;;;;;31.35;19.58;;;18.20;99.90;;;;;;5068247;28;20541;-75
2021/10/19 10:58:43;;;;;;;30.90;18.90;;;18.20;99.90;;;;;;5070220;28;20029;-75
2021/10/19 11:01:30;;;;;;;31.83;19.83;;;18.30;99.90;;;;;;5067399;28;20033;-74
2021/10/19 11:04:11;;;;;;;32.88;19.65;;;18.30;99.90;;;;;;5070670;28;20020;-74
2021/10/19 11:06:40;;;;;;;27.80;20.15;;;18.30;99.90;;;;;;5060411;28;20020;-75
2021/10/19 11:09:16;;;;;;;31.90;19.05;;;18.30;99.90;;;;;;5068872;28;20029;-74
2021/10/19 11:11:45;;;;;;;36.58;21.95;;;18.30;99.90;;;;;;5068307;28;20029;-75
2021/10/19 11:14:12;;;;;;;43.90;24.15;;;18.30;99.90;;;;;;5064275;28;20013;-74
2021/10/19 11:16:42;;;;;;;39.28;22.10;;;18.30;99.90;;;;;;5068538;28;20043;-74
2021/10/19 11:19:24;;;;;;;26.80;18.77;;;18.40;99.90;;;;;;5072635;28;20069;-74
2021/10/19 11:22:03;;;;;;;30.30;21.10;;;18.40;99.90;;;;;;5072113;28;20025;-74
2021/10/19 11:24:32;;;;;;;36.75;22.55;;;18.50;99.90;;;;;;5070884;28;20016;-74
2021/10/19 11:27:02;;;;;;;34.95;21.92;;;18.50;99.90;;;;;;5070057;28;20053;-75
2021/10/19 11:29:30;;;;;;;39.97;24.92;;;18.50;99.90;;;;;;5068384;28;20052;-75
2021/10/19 11:31:56;;;;;;;44.13;28.27;;;18.50;99.90;;;;;;5059899;28;20125;-75
2021/10/19 11:34:22;;;;;;;40.55;24.10;;;18.60;99.90;;;;;;5061317;28;20107;-75
2021/10/19 11:36:47;;;;;;;46.13;26.50;;;18.60;99.90;;;;;;5066957;28;20036;-75
2021/10/19 11:39:15;;;;;;;41.58;24.85;;;18.50;99.90;;;;;;5063064;28;20024;-74
2021/10/19 11:41:46;;;;;;;32.75;20.80;;;18.60;99.90;;;;;;5065886;28;20107;-76
2021/10/19 11:44:13;;;;;;;33.13;20.05;;;18.60;99.90;;;;;;5062759;28;20025;-75
2021/10/19 11:46:40;;;;;;;37.05;22.27;;;18.60;99.90;;;;;;5062265;28;20044;-75
2021/10/19 11:49:18;;;;;;;39.70;23.15;;;18.60;99.90;;;;;;5059513;28;20024;-75
2021/10/19 11:51:50;;;;;;;38.80;23.20;;;18.60;99.90;;;;;;5057032;28;20148;-75
2021/10/19 11:54:18;;;;;;;34.63;22.23;;;18.60;99.90;;;;;;5063094;28;20021;-75
2021/10/19 11:56:55;;;;;;;39.88;23.45;;;18.60;99.90;;;;;;5062939;28;20033;-74
2021/10/19 11:59:21;;;;;;;33.65;22.77;;;18.60;99.90;;;;;;5066220;28;20546;-74
2021/10/19 12:01:52;;;;;;;28.00;19.77;;;18.60;99.90;;;;;;5075523;28;20017;-73
2021/10/19 12:04:18;;;;;;;26.55;19.77;;;18.60;99.90;;;;;;5072792;28;20036;-74
2021/10/19 12:06:45;;;;;;;31.88;21.08;;;18.60;99.90;;;;;;5070104;28;20405;-74
2021/10/19 12:09:22;;;;;;;30.73;19.15;;;18.70;99.90;;;;;;5064324;28;20040;-75
2021/10/19 12:11:53;;;;;;;26.55;18.60;;;18.60;99.90;;;;;;5070684;28;20028;-75
2021/10/19 12:14:35;;;;;;;26.02;18.92;;;18.60;99.90;;;;;;5075149;28;20028;-76
2021/10/19 12:17:04;;;;;;;27.83;18.53;;;18.60;99.90;;;;;;5071543;28;20085;-75
2021/10/19 12:19:30;;;;;;;28.88;18.15;;;18.60;99.90;;;;;;5074734;28;20016;-75
2021/10/19 12:22:03;;;;;;;26.30;19.65;;;18.70;99.90;;;;;;5073605;28;20393;-75
2021/10/19 12:24:34;;;;;;;32.35;19.70;;;18.70;99.90;;;;;;5072426;28;20031;-74
2021/10/19 12:27:05;;;;;;;27.55;18.90;;;18.80;99.90;;;;;;5062211;28;20047;-75
2021/10/19 12:29:35;;;;;;;31.27;20.10;;;18.80;99.90;;;;;;5065950;28;20049;-75